sensor_id;sensor_type;location;lat;lon;timestamp;pressure;altitude;pressure_sealevel;temperature;humidity
74631;BME280;63138;55.082;38.804;2022-09-01T00:02:12;99234.22;;;9.93;77.64
74631;BME280;63138;55.082;38.804;2022-09-01T00:04:41;99240.97;;;9.98;77.44
74631;BME280;63138;55.082;38.804;2022-09-01T00:07:10;99243.69;;;9.98;78.10
74631;BME280;63138;55.082;38.804;2022-09-01T00:09:37;99253.03;;;9.95;77.83
74631;BME280;63138;55.082;38.804;2022-09-01T00:12:04;99238.38;;;9.89;77.81
74631;BME280;63138;55.082;38.804;2022-09-01T00:14:33;99251.28;;;9.87;77.90
74631;BME280;63138;55.082;38.804;2022-09-01T00:17:04;99252.28;;;9.86;78.35
74631;BME280;63138;55.082;38.804;2022-09-01T00:19:30;99257.91;;;9.85;78.34
74631;BME280;63138;55.082;38.804;2022-09-01T00:21:58;99245.94;;;9.79;78.33
74631;BME280;63138;55.082;38.804;2022-09-01T00:24:25;99263.06;;;9.80;78.32
74631;BME280;63138;55.082;38.804;2022-09-01T00:26:52;99253.63;;;9.75;78.38
74631;BME280;63138;55.082;38.804;2022-09-01T00:29:18;99257.56;;;9.73;78.58
74631;BME280;63138;55.082;38.804;2022-09-01T00:31:44;99248.97;;;9.69;78.81
74631;BME280;63138;55.082;38.804;2022-09-01T00:34:10;99253.72;;;9.67;79.10
74631;BME280;63138;55.082;38.804;2022-09-01T00:36:36;99250.72;;;9.62;78.90
74631;BME280;63138;55.082;38.804;2022-09-01T00:39:03;99246.50;;;9.60;78.98
74631;BME280;63138;55.082;38.804;2022-09-01T00:41:32;99239.78;;;9.55;79.23
74631;BME280;63138;55.082;38.804;2022-09-01T00:44:03;99243.91;;;9.51;79.40
74631;BME280;63138;55.082;38.804;2022-09-01T00:46:33;99245.56;;;9.52;79.59
74631;BME280;63138;55.082;38.804;2022-09-01T00:49:04;99234.19;;;9.42;80.08
74631;BME280;63138;55.082;38.804;2022-09-01T00:51:32;99240.44;;;9.43;79.95
74631;BME280;63138;55.082;38.804;2022-09-01T00:54:00;99238.28;;;9.38;79.99
74631;BME280;63138;55.082;38.804;2022-09-01T00:56:26;99240.34;;;9.36;80.37
74631;BME280;63138;55.082;38.804;2022-09-01T00:58:53;99234.44;;;9.32;80.37
74631;BME280;63138;55.082;38.804;2022-09-01T01:01:19;99223.53;;;9.26;80.43
74631;BME280;63138;55.082;38.804;2022-09-01T01:03:45;99238.09;;;9.25;80.66
74631;BME280;63138;55.082;38.804;2022-09-01T01:06:13;99230.34;;;9.22;81.09
74631;BME280;63138;55.082;38.804;2022-09-01T01:08:44;99236.41;;;9.24;81.11
74631;BME280;63138;55.082;38.804;2022-09-01T01:11:21;99241.38;;;9.20;81.12
74631;BME280;63138;55.082;38.804;2022-09-01T01:14:06;99239.03;;;9.17;81.30
74631;BME280;63138;55.082;38.804;2022-09-01T01:16:43;99239.56;;;9.12;81.45
74631;BME280;63138;55.082;38.804;2022-09-01T01:19:49;99231.28;;;9.14;81.56
74631;BME280;63138;55.082;38.804;2022-09-01T01:25:22;99232.97;;;9.15;81.35
74631;BME280;63138;55.082;38.804;2022-09-01T01:27:49;99230.78;;;9.10;81.64
74631;BME280;63138;55.082;38.804;2022-09-01T01:30:16;99217.63;;;9.07;81.68
74631;BME280;63138;55.082;38.804;2022-09-01T01:32:43;99205.66;;;9.02;81.85
74631;BME280;63138;55.082;38.804;2022-09-01T01:35:12;99202.78;;;9.03;81.93
74631;BME280;63138;55.082;38.804;2022-09-01T01:37:41;99214.66;;;9.02;81.95
74631;BME280;63138;55.082;38.804;2022-09-01T01:40:11;99218.19;;;9.03;82.03
74631;BME280;63138;55.082;38.804;2022-09-01T01:42:45;99201.28;;;9.01;82.19
74631;BME280;63138;55.082;38.804;2022-09-01T01:45:12;99219.38;;;9.00;82.39
74631;BME280;63138;55.082;38.804;2022-09-01T01:47:47;99220.59;;;8.97;82.17
74631;BME280;63138;55.082;38.804;2022-09-01T01:50:26;99209.00;;;8.89;82.06
74631;BME280;63138;55.082;38.804;2022-09-01T01:52:54;99218.16;;;8.88;82.45
74631;BME280;63138;55.082;38.804;2022-09-01T01:55:22;99226.66;;;8.85;82.71
74631;BME280;63138;55.082;38.804;2022-09-01T01:57:54;99231.59;;;8.81;82.92
74631;BME280;63138;55.082;38.804;2022-09-01T02:00:24;99221.28;;;8.76;82.92
74631;BME280;63138;55.082;38.804;2022-09-01T02:02:52;99214.56;;;8.72;82.91
74631;BME280;63138;55.082;38.804;2022-09-01T02:05:21;99222.03;;;8.70;83.26
74631;BME280;63138;55.082;38.804;2022-09-01T02:07:54;99231.16;;;8.69;83.40
74631;BME280;63138;55.082;38.804;2022-09-01T02:10:28;99228.16;;;8.64;83.41
74631;BME280;63138;55.082;38.804;2022-09-01T02:12:59;99219.75;;;8.59;83.50
74631;BME280;63138;55.082;38.804;2022-09-01T02:15:35;99222.47;;;8.59;83.45
74631;BME280;63138;55.082;38.804;2022-09-01T02:18:08;99226.84;;;8.60;83.86
74631;BME280;63138;55.082;38.804;2022-09-01T02:20:34;99229.91;;;8.57;83.42
74631;BME280;63138;55.082;38.804;2022-09-01T02:23:01;99225.53;;;8.56;83.80
74631;BME280;63138;55.082;38.804;2022-09-01T02:25:42;99223.84;;;8.55;83.79
74631;BME280;63138;55.082;38.804;2022-09-01T02:28:11;99224.88;;;8.54;84.03
74631;BME280;63138;55.082;38.804;2022-09-01T02:30:45;99232.81;;;8.55;83.92
74631;BME280;63138;55.082;38.804;2022-09-01T02:33:15;99223.13;;;8.61;83.64
74631;BME280;63138;55.082;38.804;2022-09-01T02:36:09;99219.69;;;8.67;83.25
74631;BME280;63138;55.082;38.804;2022-09-01T02:38:37;99219.75;;;8.59;83.71
74631;BME280;63138;55.082;38.804;2022-09-01T02:41:08;99220.41;;;8.61;83.45
74631;BME280;63138;55.082;38.804;2022-09-01T02:43:34;99225.34;;;8.57;83.46
74631;BME280;63138;55.082;38.804;2022-09-01T02:46:00;99227.03;;;8.58;83.92
74631;BME280;63138;55.082;38.804;2022-09-01T02:48:33;99213.19;;;8.53;83.96
74631;BME280;63138;55.082;38.804;2022-09-01T02:51:03;99223.66;;;8.56;84.01
74631;BME280;63138;55.082;38.804;2022-09-01T02:53:31;99221.31;;;8.53;83.82
74631;BME280;63138;55.082;38.804;2022-09-01T02:55:58;99223.00;;;8.54;83.54
74631;BME280;63138;55.082;38.804;2022-09-01T02:58:27;99233.28;;;8.59;83.49
74631;BME280;63138;55.082;38.804;2022-09-01T03:00:56;99228.72;;;8.59;83.38
74631;BME280;63138;55.082;38.804;2022-09-01T03:03:25;99231.59;;;8.58;83.51
74631;BME280;63138;55.082;38.804;2022-09-01T03:05:52;99232.25;;;8.60;83.26
74631;BME280;63138;55.082;38.804;2022-09-01T03:08:23;99242.06;;;8.61;83.37
74631;BME280;63138;55.082;38.804;2022-09-01T03:10:50;99247.47;;;8.61;83.35
74631;BME280;63138;55.082;38.804;2022-09-01T03:13:19;99251.69;;;8.64;83.05
74631;BME280;63138;55.082;38.804;2022-09-01T03:15:46;99236.28;;;8.64;83.36
74631;BME280;63138;55.082;38.804;2022-09-01T03:18:13;99245.09;;;8.66;83.30
74631;BME280;63138;55.082;38.804;2022-09-01T03:20:41;99254.03;;;8.67;82.91
74631;BME280;63138;55.082;38.804;2022-09-01T03:23:11;99257.88;;;8.72;82.85
74631;BME280;63138;55.082;38.804;2022-09-01T03:25:41;99248.75;;;8.73;82.96
74631;BME280;63138;55.082;38.804;2022-09-01T03:28:08;99244.81;;;8.76;82.60
74631;BME280;63138;55.082;38.804;2022-09-01T03:30:36;99255.94;;;8.81;82.40
74631;BME280;63138;55.082;38.804;2022-09-01T03:33:06;99264.06;;;8.81;82.36
74631;BME280;63138;55.082;38.804;2022-09-01T03:35:33;99262.50;;;8.87;82.23
74631;BME280;63138;55.082;38.804;2022-09-01T03:38:00;99270.91;;;8.92;81.87
74631;BME280;63138;55.082;38.804;2022-09-01T03:40:29;99270.25;;;8.90;82.02
74631;BME280;63138;55.082;38.804;2022-09-01T03:43:03;99273.91;;;8.97;81.81
74631;BME280;63138;55.082;38.804;2022-09-01T03:45:30;99260.56;;;8.95;81.31
74631;BME280;63138;55.082;38.804;2022-09-01T03:48:07;99281.25;;;9.11;81.27
74631;BME280;63138;55.082;38.804;2022-09-01T03:50:41;99272.53;;;9.16;80.83
74631;BME280;63138;55.082;38.804;2022-09-01T03:53:11;99286.38;;;9.21;80.80
74631;BME280;63138;55.082;38.804;2022-09-01T03:55:37;99281.59;;;9.08;80.54
74631;BME280;63138;55.082;38.804;2022-09-01T03:58:07;99286.19;;;9.08;80.36
74631;BME280;63138;55.082;38.804;2022-09-01T04:00:41;99289.56;;;9.10;80.33
74631;BME280;63138;55.082;38.804;2022-09-01T04:03:10;99294.22;;;9.16;79.93
74631;BME280;63138;55.082;38.804;2022-09-01T04:05:41;99296.28;;;9.29;79.38
74631;BME280;63138;55.082;38.804;2022-09-01T04:08:08;99293.69;;;9.21;79.35
74631;BME280;63138;55.082;38.804;2022-09-01T04:10:46;99299.09;;;9.21;79.45
74631;BME280;63138;55.082;38.804;2022-09-01T04:13:37;99297.34;;;9.28;79.53
74631;BME280;63138;55.082;38.804;2022-09-01T04:16:04;99300.13;;;9.34;79.50
74631;BME280;63138;55.082;38.804;2022-09-01T04:18:55;99296.22;;;9.37;79.02
74631;BME280;63138;55.082;38.804;2022-09-01T04:21:21;99302.47;;;9.37;78.20
74631;BME280;63138;55.082;38.804;2022-09-01T04:23:47;99300.53;;;9.46;77.53
74631;BME280;63138;55.082;38.804;2022-09-01T04:26:13;99300.81;;;9.51;76.90
74631;BME280;63138;55.082;38.804;2022-09-01T04:28:47;99296.63;;;9.64;76.53
74631;BME280;63138;55.082;38.804;2022-09-01T04:31:20;99297.16;;;9.74;75.73
74631;BME280;63138;55.082;38.804;2022-09-01T04:33:50;99283.63;;;9.89;75.20
74631;BME280;63138;55.082;38.804;2022-09-01T04:36:24;99278.03;;;9.90;74.04
74631;BME280;63138;55.082;38.804;2022-09-01T04:39:00;99283.13;;;10.15;73.00
74631;BME280;63138;55.082;38.804;2022-09-01T04:41:31;99287.59;;;10.23;71.90
74631;BME280;63138;55.082;38.804;2022-09-01T04:44:01;99270.03;;;10.33;71.61
74631;BME280;63138;55.082;38.804;2022-09-01T04:46:32;99273.66;;;10.41;70.98
74631;BME280;63138;55.082;38.804;2022-09-01T04:49:04;99269.38;;;10.53;70.37
74631;BME280;63138;55.082;38.804;2022-09-01T04:51:40;99281.16;;;10.60;69.21
74631;BME280;63138;55.082;38.804;2022-09-01T04:54:07;99276.44;;;10.69;69.42
74631;BME280;63138;55.082;38.804;2022-09-01T04:56:42;99281.78;;;10.84;68.74
74631;BME280;63138;55.082;38.804;2022-09-01T04:59:14;99277.16;;;10.78;68.81
74631;BME280;63138;55.082;38.804;2022-09-01T05:01:44;99274.25;;;10.79;68.99
74631;BME280;63138;55.082;38.804;2022-09-01T05:04:15;99275.72;;;10.82;68.41
74631;BME280;63138;55.082;38.804;2022-09-01T05:06:46;99283.03;;;11.03;68.06
74631;BME280;63138;55.082;38.804;2022-09-01T05:09:15;99278.94;;;11.14;67.37
74631;BME280;63138;55.082;38.804;2022-09-01T05:12:08;99283.72;;;11.12;66.65
74631;BME280;63138;55.082;38.804;2022-09-01T05:14:40;99282.03;;;11.10;66.63
74631;BME280;63138;55.082;38.804;2022-09-01T05:17:09;99290.34;;;11.02;67.37
74631;BME280;63138;55.082;38.804;2022-09-01T05:19:41;99282.47;;;11.14;67.02
74631;BME280;63138;55.082;38.804;2022-09-01T05:22:08;99289.00;;;11.20;66.96
74631;BME280;63138;55.082;38.804;2022-09-01T05:24:38;99287.97;;;11.21;66.66
74631;BME280;63138;55.082;38.804;2022-09-01T05:27:06;99287.09;;;10.92;67.06
74631;BME280;63138;55.082;38.804;2022-09-01T05:29:37;99288.06;;;11.06;67.16
74631;BME280;63138;55.082;38.804;2022-09-01T05:32:06;99276.03;;;11.15;67.00
74631;BME280;63138;55.082;38.804;2022-09-01T05:34:39;99288.22;;;11.26;66.80
74631;BME280;63138;55.082;38.804;2022-09-01T05:37:07;99277.63;;;11.31;66.85
74631;BME280;63138;55.082;38.804;2022-09-01T05:39:36;99280.97;;;11.68;65.64
74631;BME280;63138;55.082;38.804;2022-09-01T05:42:04;99285.22;;;11.77;65.41
74631;BME280;63138;55.082;38.804;2022-09-01T05:44:33;99288.88;;;11.91;65.07
74631;BME280;63138;55.082;38.804;2022-09-01T05:47:00;99285.22;;;12.12;63.23
74631;BME280;63138;55.082;38.804;2022-09-01T05:49:29;99278.38;;;12.23;63.47
74631;BME280;63138;55.082;38.804;2022-09-01T05:51:59;99291.97;;;12.30;63.51
74631;BME280;63138;55.082;38.804;2022-09-01T05:54:28;99290.72;;;12.26;63.66
74631;BME280;63138;55.082;38.804;2022-09-01T05:56:55;99290.50;;;12.27;63.82
74631;BME280;63138;55.082;38.804;2022-09-01T05:59:26;99271.38;;;13.09;61.44
74631;BME280;63138;55.082;38.804;2022-09-01T06:02:12;99291.19;;;14.09;58.03
74631;BME280;63138;55.082;38.804;2022-09-01T06:04:38;99278.78;;;15.22;54.57
74631;BME280;63138;55.082;38.804;2022-09-01T06:07:15;99283.66;;;15.20;53.74
74631;BME280;63138;55.082;38.804;2022-09-01T06:09:46;99282.72;;;15.95;51.68
74631;BME280;63138;55.082;38.804;2022-09-01T06:12:16;99287.72;;;15.61;51.89
74631;BME280;63138;55.082;38.804;2022-09-01T06:14:44;99289.66;;;14.72;51.31
74631;BME280;63138;55.082;38.804;2022-09-01T06:17:13;99291.00;;;14.49;53.02
74631;BME280;63138;55.082;38.804;2022-09-01T06:19:41;99292.75;;;14.82;52.22
74631;BME280;63138;55.082;38.804;2022-09-01T06:22:08;99275.44;;;16.08;48.04
74631;BME280;63138;55.082;38.804;2022-09-01T06:24:36;99278.38;;;16.73;46.03
74631;BME280;63138;55.082;38.804;2022-09-01T06:27:06;99289.78;;;16.70;45.12
74631;BME280;63138;55.082;38.804;2022-09-01T06:29:37;99273.72;;;15.70;47.21
74631;BME280;63138;55.082;38.804;2022-09-01T06:32:08;99286.56;;;15.69;48.51
74631;BME280;63138;55.082;38.804;2022-09-01T06:34:38;99302.56;;;15.47;48.30
74631;BME280;63138;55.082;38.804;2022-09-01T06:37:08;99297.31;;;15.20;48.27
74631;BME280;63138;55.082;38.804;2022-09-01T06:39:34;99298.34;;;15.70;47.39
74631;BME280;63138;55.082;38.804;2022-09-01T06:42:03;99280.97;;;15.14;47.95
74631;BME280;63138;55.082;38.804;2022-09-01T06:44:40;99297.09;;;16.28;44.67
74631;BME280;63138;55.082;38.804;2022-09-01T06:47:07;99295.63;;;16.43;44.72
74631;BME280;63138;55.082;38.804;2022-09-01T06:49:33;99286.34;;;16.44;44.82
74631;BME280;63138;55.082;38.804;2022-09-01T06:52:07;99279.09;;;16.01;44.71
74631;BME280;63138;55.082;38.804;2022-09-01T06:54:33;99288.91;;;15.65;45.82
74631;BME280;63138;55.082;38.804;2022-09-01T06:57:02;99296.09;;;15.16;47.43
74631;BME280;63138;55.082;38.804;2022-09-01T06:59:29;99303.19;;;15.24;47.61
74631;BME280;63138;55.082;38.804;2022-09-01T07:02:01;99298.16;;;15.46;46.92
74631;BME280;63138;55.082;38.804;2022-09-01T07:04:51;99287.88;;;15.66;46.21
74631;BME280;63138;55.082;38.804;2022-09-01T07:07:16;99296.78;;;15.99;44.29
74631;BME280;63138;55.082;38.804;2022-09-01T07:10:00;99298.47;;;16.86;42.36
74631;BME280;63138;55.082;38.804;2022-09-01T07:12:43;99297.63;;;17.39;40.71
74631;BME280;63138;55.082;38.804;2022-09-01T07:15:11;99300.41;;;17.86;39.71
74631;BME280;63138;55.082;38.804;2022-09-01T07:17:40;99294.53;;;18.76;39.10
74631;BME280;63138;55.082;38.804;2022-09-01T07:20:07;99304.22;;;18.78;38.29
74631;BME280;63138;55.082;38.804;2022-09-01T07:22:35;99306.16;;;16.77;41.25
74631;BME280;63138;55.082;38.804;2022-09-01T07:25:01;99297.22;;;16.81;42.46
74631;BME280;63138;55.082;38.804;2022-09-01T07:27:47;99311.00;;;17.47;41.32
74631;BME280;63138;55.082;38.804;2022-09-01T07:30:17;99301.91;;;17.35;41.07
74631;BME280;63138;55.082;38.804;2022-09-01T07:32:44;99297.88;;;18.08;40.04
74631;BME280;63138;55.082;38.804;2022-09-01T07:35:13;99280.31;;;18.79;38.08
74631;BME280;63138;55.082;38.804;2022-09-01T07:37:39;99285.97;;;19.68;35.80
74631;BME280;63138;55.082;38.804;2022-09-01T07:40:08;99277.94;;;18.42;37.60
74631;BME280;63138;55.082;38.804;2022-09-01T07:42:37;99294.88;;;18.91;36.96
74631;BME280;63138;55.082;38.804;2022-09-01T07:45:27;99297.84;;;18.20;37.45
74631;BME280;63138;55.082;38.804;2022-09-01T07:47:57;99290.72;;;17.95;38.36
74631;BME280;63138;55.082;38.804;2022-09-01T07:50:35;99281.41;;;17.85;38.63
74631;BME280;63138;55.082;38.804;2022-09-01T07:53:03;99296.38;;;18.70;37.54
74631;BME280;63138;55.082;38.804;2022-09-01T07:55:29;99290.72;;;18.48;37.79
74631;BME280;63138;55.082;38.804;2022-09-01T07:57:57;99290.81;;;18.24;38.59
74631;BME280;63138;55.082;38.804;2022-09-01T08:00:24;99297.16;;;17.89;39.10
74631;BME280;63138;55.082;38.804;2022-09-01T08:02:58;99284.81;;;17.21;40.51
74631;BME280;63138;55.082;38.804;2022-09-01T08:05:24;99289.69;;;18.25;38.66
74631;BME280;63138;55.082;38.804;2022-09-01T08:07:52;99296.44;;;17.82;39.89
74631;BME280;63138;55.082;38.804;2022-09-01T08:10:22;99281.22;;;16.97;41.43
74631;BME280;63138;55.082;38.804;2022-09-01T08:12:48;99291.75;;;17.35;41.04
74631;BME280;63138;55.082;38.804;2022-09-01T08:15:14;99292.31;;;17.02;41.91
74631;BME280;63138;55.082;38.804;2022-09-01T08:17:43;99268.16;;;16.50;42.32
74631;BME280;63138;55.082;38.804;2022-09-01T08:20:11;99296.78;;;16.85;41.60
74631;BME280;63138;55.082;38.804;2022-09-01T08:22:57;99290.69;;;17.36;41.15
74631;BME280;63138;55.082;38.804;2022-09-01T08:25:28;99289.22;;;18.28;39.46
74631;BME280;63138;55.082;38.804;2022-09-01T08:27:54;99290.28;;;18.39;38.99
74631;BME280;63138;55.082;38.804;2022-09-01T08:30:21;99277.31;;;18.51;37.27
74631;BME280;63138;55.082;38.804;2022-09-01T08:32:48;99289.25;;;18.17;37.35
74631;BME280;63138;55.082;38.804;2022-09-01T08:35:15;99285.38;;;18.99;36.53
74631;BME280;63138;55.082;38.804;2022-09-01T08:37:41;99282.88;;;18.97;36.37
74631;BME280;63138;55.082;38.804;2022-09-01T08:40:11;99280.88;;;19.09;35.88
74631;BME280;63138;55.082;38.804;2022-09-01T08:43:08;99279.78;;;18.65;36.37
74631;BME280;63138;55.082;38.804;2022-09-01T08:45:57;99280.56;;;17.61;38.69
74631;BME280;63138;55.082;38.804;2022-09-01T08:48:35;99292.31;;;17.02;39.76
74631;BME280;63138;55.082;38.804;2022-09-01T08:57:52;99295.59;;;17.70;38.94
74631;BME280;63138;55.082;38.804;2022-09-01T09:00:21;99292.44;;;18.37;37.81
74631;BME280;63138;55.082;38.804;2022-09-01T09:05:55;99288.88;;;16.76;40.52
74631;BME280;63138;55.082;38.804;2022-09-01T09:11:52;99285.53;;;16.25;42.12
74631;BME280;63138;55.082;38.804;2022-09-01T09:17:18;99298.88;;;15.60;43.34
74631;BME280;63138;55.082;38.804;2022-09-01T09:19:45;99299.03;;;15.65;43.15
74631;BME280;63138;55.082;38.804;2022-09-01T09:22:16;99291.84;;;15.20;44.59
74631;BME280;63138;55.082;38.804;2022-09-01T09:25:06;99311.66;;;15.16;44.55
74631;BME280;63138;55.082;38.804;2022-09-01T09:27:42;99312.31;;;14.79;45.58
74631;BME280;63138;55.082;38.804;2022-09-01T09:30:19;99324.47;;;14.83;45.85
74631;BME280;63138;55.082;38.804;2022-09-01T09:32:52;99303.50;;;14.77;46.27
74631;BME280;63138;55.082;38.804;2022-09-01T09:35:26;99316.38;;;14.70;45.83
74631;BME280;63138;55.082;38.804;2022-09-01T09:38:15;99315.66;;;14.81;46.15
74631;BME280;63138;55.082;38.804;2022-09-01T09:41:04;99304.22;;;14.66;46.21
74631;BME280;63138;55.082;38.804;2022-09-01T09:43:35;99313.38;;;14.78;45.19
74631;BME280;63138;55.082;38.804;2022-09-01T09:46:25;99315.34;;;15.28;43.99
74631;BME280;63138;55.082;38.804;2022-09-01T09:49:17;99330.19;;;15.39;43.78
74631;BME280;63138;55.082;38.804;2022-09-01T09:51:53;99328.63;;;15.24;43.92
74631;BME280;63138;55.082;38.804;2022-09-01T09:55:03;99319.53;;;15.56;43.54
74631;BME280;63138;55.082;38.804;2022-09-01T09:57:30;99330.56;;;15.67;43.22
74631;BME280;63138;55.082;38.804;2022-09-01T10:00:06;99317.59;;;15.63;43.22
74631;BME280;63138;55.082;38.804;2022-09-01T10:02:43;99321.31;;;15.94;42.44
74631;BME280;63138;55.082;38.804;2022-09-01T10:05:42;99321.03;;;15.77;42.71
74631;BME280;63138;55.082;38.804;2022-09-01T10:08:11;99316.06;;;16.11;42.20
74631;BME280;63138;55.082;38.804;2022-09-01T10:10:47;99334.22;;;16.42;42.13
74631;BME280;63138;55.082;38.804;2022-09-01T10:13:17;99323.94;;;15.82;43.06
74631;BME280;63138;55.082;38.804;2022-09-01T10:15:48;99318.25;;;15.58;43.78
74631;BME280;63138;55.082;38.804;2022-09-01T10:18:17;99305.34;;;15.40;43.92
74631;BME280;63138;55.082;38.804;2022-09-01T10:21:03;99319.03;;;15.40;44.37
74631;BME280;63138;55.082;38.804;2022-09-01T10:23:34;99336.09;;;15.86;43.68
74631;BME280;63138;55.082;38.804;2022-09-01T10:26:29;99319.16;;;15.77;43.90
74631;BME280;63138;55.082;38.804;2022-09-01T10:28:56;99334.63;;;15.40;44.50
74631;BME280;63138;55.082;38.804;2022-09-01T10:31:28;99335.38;;;15.22;44.76
74631;BME280;63138;55.082;38.804;2022-09-01T10:33:55;99343.78;;;14.95;45.45
74631;BME280;63138;55.082;38.804;2022-09-01T10:36:22;99324.28;;;14.78;46.25
74631;BME280;63138;55.082;38.804;2022-09-01T10:38:48;99349.88;;;14.90;45.94
74631;BME280;63138;55.082;38.804;2022-09-01T10:41:52;99339.38;;;15.19;46.06
74631;BME280;63138;55.082;38.804;2022-09-01T10:44:34;99333.06;;;15.76;45.21
74631;BME280;63138;55.082;38.804;2022-09-01T10:47:09;99343.31;;;15.80;44.92
74631;BME280;63138;55.082;38.804;2022-09-01T10:55:24;99333.16;;;16.06;43.70
74631;BME280;63138;55.082;38.804;2022-09-01T10:58:11;99335.81;;;16.31;43.16
74631;BME280;63138;55.082;38.804;2022-09-01T11:00:43;99339.16;;;15.78;44.12
74631;BME280;63138;55.082;38.804;2022-09-01T11:06:06;99343.50;;;15.85;43.27
74631;BME280;63138;55.082;38.804;2022-09-01T11:11:25;99340.69;;;15.67;43.76
74631;BME280;63138;55.082;38.804;2022-09-01T11:13:55;99336.50;;;15.64;44.05
74631;BME280;63138;55.082;38.804;2022-09-01T11:16:32;99320.97;;;15.58;43.63
74631;BME280;63138;55.082;38.804;2022-09-01T11:22:33;99329.94;;;15.47;44.11
74631;BME280;63138;55.082;38.804;2022-09-01T11:30:44;99338.84;;;15.36;43.39
74631;BME280;63138;55.082;38.804;2022-09-01T11:33:49;99350.28;;;15.26;42.92
74631;BME280;63138;55.082;38.804;2022-09-01T11:41:52;99337.63;;;15.00;44.25
74631;BME280;63138;55.082;38.804;2022-09-01T11:44:31;99344.41;;;15.22;43.90
74631;BME280;63138;55.082;38.804;2022-09-01T11:47:06;99336.78;;;15.56;43.56
74631;BME280;63138;55.082;38.804;2022-09-01T11:49:34;99336.50;;;15.64;42.68
74631;BME280;63138;55.082;38.804;2022-09-01T11:52:02;99344.56;;;15.59;42.57
74631;BME280;63138;55.082;38.804;2022-09-01T11:54:38;99332.88;;;15.45;42.64
74631;BME280;63138;55.082;38.804;2022-09-01T11:57:24;99327.66;;;15.12;43.57
74631;BME280;63138;55.082;38.804;2022-09-01T11:59:51;99335.22;;;14.78;44.47
74631;BME280;63138;55.082;38.804;2022-09-01T12:02:26;99337.72;;;14.86;44.85
74631;BME280;63138;55.082;38.804;2022-09-01T12:04:54;99341.97;;;14.76;45.33
74631;BME280;63138;55.082;38.804;2022-09-01T12:07:29;99342.53;;;14.91;45.45
74631;BME280;63138;55.082;38.804;2022-09-01T12:09:59;99346.44;;;14.70;45.69
74631;BME280;63138;55.082;38.804;2022-09-01T12:14:58;99340.59;;;14.60;46.17
74631;BME280;63138;55.082;38.804;2022-09-01T12:17:24;99339.75;;;14.66;46.09
74631;BME280;63138;55.082;38.804;2022-09-01T12:19:50;99346.75;;;14.87;45.88
74631;BME280;63138;55.082;38.804;2022-09-01T12:22:17;99333.22;;;14.99;45.25
74631;BME280;63138;55.082;38.804;2022-09-01T12:24:46;99331.28;;;15.06;44.93
74631;BME280;63138;55.082;38.804;2022-09-01T12:27:13;99349.13;;;15.08;44.86
74631;BME280;63138;55.082;38.804;2022-09-01T12:29:40;99341.91;;;15.21;44.74
74631;BME280;63138;55.082;38.804;2022-09-01T12:32:07;99343.53;;;15.54;43.91
74631;BME280;63138;55.082;38.804;2022-09-01T12:34:59;99334.84;;;15.89;42.66
74631;BME280;63138;55.082;38.804;2022-09-01T12:37:26;99318.84;;;15.60;43.22
74631;BME280;63138;55.082;38.804;2022-09-01T12:39:54;99341.31;;;15.44;43.22
74631;BME280;63138;55.082;38.804;2022-09-01T12:42:27;99340.63;;;15.23;43.75
74631;BME280;63138;55.082;38.804;2022-09-01T12:45:02;99333.34;;;15.10;44.31
74631;BME280;63138;55.082;38.804;2022-09-01T12:52:32;99351.59;;;15.23;43.84
74631;BME280;63138;55.082;38.804;2022-09-01T12:57:25;99329.75;;;15.17;43.18
74631;BME280;63138;55.082;38.804;2022-09-01T13:02:39;99341.53;;;15.10;43.49
74631;BME280;63138;55.082;38.804;2022-09-01T13:07:58;99342.94;;;14.95;44.08
74631;BME280;63138;55.082;38.804;2022-09-01T13:10:28;99331.28;;;15.06;44.11
74631;BME280;63138;55.082;38.804;2022-09-01T13:12:55;99339.78;;;15.23;43.45
74631;BME280;63138;55.082;38.804;2022-09-01T13:15:23;99333.38;;;15.36;42.81
74631;BME280;63138;55.082;38.804;2022-09-01T13:17:50;99339.78;;;15.73;41.45
74631;BME280;63138;55.082;38.804;2022-09-01T13:20:16;99340.56;;;15.55;41.66
74631;BME280;63138;55.082;38.804;2022-09-01T13:22:42;99346.25;;;15.54;40.88
74631;BME280;63138;55.082;38.804;2022-09-01T13:25:14;99332.31;;;15.37;41.64
74631;BME280;63138;55.082;38.804;2022-09-01T13:27:40;99333.53;;;15.16;42.23
74631;BME280;63138;55.082;38.804;2022-09-01T13:30:10;99347.41;;;15.14;41.97
74631;BME280;63138;55.082;38.804;2022-09-01T13:32:37;99341.28;;;15.19;42.04
74631;BME280;63138;55.082;38.804;2022-09-01T13:35:03;99339.09;;;15.34;41.76
74631;BME280;63138;55.082;38.804;2022-09-01T13:37:29;99338.41;;;15.39;41.92
74631;BME280;63138;55.082;38.804;2022-09-01T13:39:55;99332.66;;;15.47;41.55
74631;BME280;63138;55.082;38.804;2022-09-01T13:42:21;99340.00;;;15.46;41.68
74631;BME280;63138;55.082;38.804;2022-09-01T13:44:48;99328.41;;;15.51;41.09
74631;BME280;63138;55.082;38.804;2022-09-01T13:47:17;99329.34;;;15.63;40.58
74631;BME280;63138;55.082;38.804;2022-09-01T13:49:43;99330.63;;;15.61;40.61
74631;BME280;63138;55.082;38.804;2022-09-01T13:52:12;99342.22;;;15.63;40.25
74631;BME280;63138;55.082;38.804;2022-09-01T13:54:48;99328.75;;;15.36;40.08
74631;BME280;63138;55.082;38.804;2022-09-01T13:57:14;99331.31;;;15.31;40.26
74631;BME280;63138;55.082;38.804;2022-09-01T13:59:41;99327.84;;;15.42;40.34
74631;BME280;63138;55.082;38.804;2022-09-01T14:02:07;99333.44;;;15.54;40.21
74631;BME280;63138;55.082;38.804;2022-09-01T14:04:33;99332.75;;;15.34;40.16
74631;BME280;63138;55.082;38.804;2022-09-01T14:06:59;99336.22;;;15.22;40.34
74631;BME280;63138;55.082;38.804;2022-09-01T14:09:26;99331.41;;;15.18;40.71
74631;BME280;63138;55.082;38.804;2022-09-01T14:11:53;99333.09;;;15.19;40.77
74631;BME280;63138;55.082;38.804;2022-09-01T14:14:19;99325.53;;;15.14;40.76
74631;BME280;63138;55.082;38.804;2022-09-01T14:16:45;99333.59;;;15.09;40.92